Terminal Aerodrome Forecast
Issued by NWS

Current Version | Previous Version | Text Only | Print | Product List | Glossary Off
Versions: 1 2 3 4 5 6 7 8 9 10 11 12 13 14 15 16 17 18 19 20 21 22 23 24 25

000
FTUS41 KRLX 291700
TAFCKB
TAF
KCKB 291720Z 2918/3018 19007KT 6SM -RA BR OVC050
     FM292000 20009G15KT P6SM BKN050
     FM300200 24011G19KT 5SM -RASN OVC035
     FM300400 25011G19KT 1 1/2SM -SN OVC020
     FM301400 29012G20KT 2SM -SN OVC015
     FM301700 30012G20KT 6SM -SHSN BKN025=

USA.gov is the U.S. government's official web portal to all federal, state and local government web resources and services.